sensor_id;sensor_type;location;lat;lon;timestamp;pressure;altitude;pressure_sealevel;temperature;humidity
10014;BME280;45684;48.358;10.746;2023-10-13T00:00:16;96373.69;;;15.94;100.00
10014;BME280;45684;48.358;10.746;2023-10-13T00:02:57;96378.34;;;15.94;100.00
10014;BME280;45684;48.358;10.746;2023-10-13T00:05:27;96382.22;;;15.93;100.00
10014;BME280;45684;48.358;10.746;2023-10-13T00:07:58;96369.75;;;15.92;100.00
10014;BME280;45684;48.358;10.746;2023-10-13T00:10:27;96379.06;;;15.91;100.00
10014;BME280;45684;48.358;10.746;2023-10-13T00:12:56;96370.09;;;15.90;100.00
10014;BME280;45684;48.358;10.746;2023-10-13T00:15:39;96373.16;;;15.89;100.00
10014;BME280;45684;48.358;10.746;2023-10-13T00:18:12;96369.97;;;15.87;100.00
10014;BME280;45684;48.358;10.746;2023-10-13T00:20:41;96370.31;;;15.85;100.00
10014;BME280;45684;48.358;10.746;2023-10-13T00:23:16;96371.13;;;15.86;100.00
10014;BME280;45684;48.358;10.746;2023-10-13T00:25:48;96364.41;;;15.83;100.00
10014;BME280;45684;48.358;10.746;2023-10-13T00:28:26;96357.03;;;15.84;100.00
10014;BME280;45684;48.358;10.746;2023-10-13T00:31:02;96364.78;;;15.81;100.00
10014;BME280;45684;48.358;10.746;2023-10-13T00:33:37;96362.38;;;15.80;100.00
10014;BME280;45684;48.358;10.746;2023-10-13T00:36:07;96359.22;;;15.78;100.00
10014;BME280;45684;48.358;10.746;2023-10-13T00:38:45;96351.72;;;15.75;100.00
10014;BME280;45684;48.358;10.746;2023-10-13T00:41:15;96358.31;;;15.74;100.00
10014;BME280;45684;48.358;10.746;2023-10-13T00:43:45;96358.66;;;15.72;100.00
10014;BME280;45684;48.358;10.746;2023-10-13T00:46:12;96353.09;;;15.69;100.00
10014;BME280;45684;48.358;10.746;2023-10-13T00:48:45;96355.38;;;15.67;100.00
10014;BME280;45684;48.358;10.746;2023-10-13T00:51:19;96356.06;;;15.64;100.00
10014;BME280;45684;48.358;10.746;2023-10-13T00:54:02;96357.97;;;15.63;100.00
10014;BME280;45684;48.358;10.746;2023-10-13T00:56:34;96352.03;;;15.61;100.00
10014;BME280;45684;48.358;10.746;2023-10-13T00:59:07;96349.69;;;15.60;100.00
10014;BME280;45684;48.358;10.746;2023-10-13T01:01:36;96354.69;;;15.57;100.00
10014;BME280;45684;48.358;10.746;2023-10-13T01:04:08;96346.50;;;15.57;100.00
10014;BME280;45684;48.358;10.746;2023-10-13T01:06:35;96357.41;;;15.57;100.00
10014;BME280;45684;48.358;10.746;2023-10-13T01:09:07;96352.75;;;15.58;100.00
10014;BME280;45684;48.358;10.746;2023-10-13T01:11:40;96356.59;;;15.57;100.00
10014;BME280;45684;48.358;10.746;2023-10-13T01:14:09;96354.22;;;15.55;100.00
10014;BME280;45684;48.358;10.746;2023-10-13T01:16:37;96353.44;;;15.55;100.00
10014;BME280;45684;48.358;10.746;2023-10-13T01:19:10;96350.25;;;15.53;100.00
10014;BME280;45684;48.358;10.746;2023-10-13T01:21:39;96351.72;;;15.50;100.00
10014;BME280;45684;48.358;10.746;2023-10-13T01:24:09;96350.47;;;15.48;100.00
10014;BME280;45684;48.358;10.746;2023-10-13T01:26:40;96350.03;;;15.46;100.00
10014;BME280;45684;48.358;10.746;2023-10-13T01:29:10;96346.41;;;15.42;100.00
10014;BME280;45684;48.358;10.746;2023-10-13T01:31:42;96341.63;;;15.39;100.00
10014;BME280;45684;48.358;10.746;2023-10-13T01:34:14;96340.41;;;15.36;100.00
10014;BME280;45684;48.358;10.746;2023-10-13T01:36:48;96339.72;;;15.27;100.00
10014;BME280;45684;48.358;10.746;2023-10-13T01:39:19;96339.84;;;15.18;100.00
10014;BME280;45684;48.358;10.746;2023-10-13T01:41:48;96334.19;;;15.11;100.00
10014;BME280;45684;48.358;10.746;2023-10-13T01:44:22;96330.09;;;15.05;100.00
10014;BME280;45684;48.358;10.746;2023-10-13T01:46:49;96331.81;;;14.97;100.00
10014;BME280;45684;48.358;10.746;2023-10-13T01:49:17;96331.22;;;14.92;100.00
10014;BME280;45684;48.358;10.746;2023-10-13T01:51:46;96343.34;;;14.82;100.00
10014;BME280;45684;48.358;10.746;2023-10-13T01:54:14;96333.38;;;14.74;100.00
10014;BME280;45684;48.358;10.746;2023-10-13T01:56:45;96346.38;;;14.68;100.00
10014;BME280;45684;48.358;10.746;2023-10-13T01:59:13;96340.72;;;14.61;100.00
10014;BME280;45684;48.358;10.746;2023-10-13T02:01:42;96339.00;;;14.57;100.00
10014;BME280;45684;48.358;10.746;2023-10-13T02:04:09;96339.53;;;14.50;100.00
10014;BME280;45684;48.358;10.746;2023-10-13T02:06:38;96337.72;;;14.42;100.00
10014;BME280;45684;48.358;10.746;2023-10-13T02:09:06;96341.75;;;14.36;100.00
10014;BME280;45684;48.358;10.746;2023-10-13T02:11:40;96336.53;;;14.30;100.00
10014;BME280;45684;48.358;10.746;2023-10-13T02:14:09;96342.53;;;14.24;100.00
10014;BME280;45684;48.358;10.746;2023-10-13T02:16:39;96340.81;;;14.19;100.00
10014;BME280;45684;48.358;10.746;2023-10-13T02:19:06;96336.59;;;14.10;100.00
10014;BME280;45684;48.358;10.746;2023-10-13T02:21:35;96340.03;;;13.98;100.00
10014;BME280;45684;48.358;10.746;2023-10-13T02:24:06;96334.56;;;13.86;100.00
10014;BME280;45684;48.358;10.746;2023-10-13T02:26:40;96341.31;;;13.79;100.00
10014;BME280;45684;48.358;10.746;2023-10-13T02:29:09;96340.28;;;13.72;100.00
10014;BME280;45684;48.358;10.746;2023-10-13T02:31:41;96339.53;;;13.63;100.00
10014;BME280;45684;48.358;10.746;2023-10-13T02:34:09;96330.66;;;13.53;100.00
10014;BME280;45684;48.358;10.746;2023-10-13T02:36:40;96334.88;;;13.42;100.00
10014;BME280;45684;48.358;10.746;2023-10-13T02:39:14;96337.00;;;13.37;100.00
10014;BME280;45684;48.358;10.746;2023-10-13T02:41:43;96337.84;;;13.28;100.00
10014;BME280;45684;48.358;10.746;2023-10-13T02:44:16;96337.84;;;13.28;100.00
10014;BME280;45684;48.358;10.746;2023-10-13T02:46:53;96342.34;;;13.24;100.00
10014;BME280;45684;48.358;10.746;2023-10-13T02:49:23;96334.81;;;13.21;100.00
10014;BME280;45684;48.358;10.746;2023-10-13T02:51:52;96337.53;;;13.21;100.00
10014;BME280;45684;48.358;10.746;2023-10-13T02:54:19;96338.97;;;13.19;100.00
10014;BME280;45684;48.358;10.746;2023-10-13T02:56:47;96337.25;;;13.14;100.00
10014;BME280;45684;48.358;10.746;2023-10-13T02:59:18;96324.34;;;13.11;100.00
10014;BME280;45684;48.358;10.746;2023-10-13T03:02:01;96330.75;;;13.07;100.00
10014;BME280;45684;48.358;10.746;2023-10-13T03:04:33;96327.56;;;13.05;100.00
10014;BME280;45684;48.358;10.746;2023-10-13T03:07:02;96323.13;;;13.00;100.00
10014;BME280;45684;48.358;10.746;2023-10-13T03:09:30;96319.94;;;12.98;100.00
10014;BME280;45684;48.358;10.746;2023-10-13T03:12:04;96319.81;;;12.94;100.00
10014;BME280;45684;48.358;10.746;2023-10-13T03:14:32;96321.13;;;12.88;100.00
10014;BME280;45684;48.358;10.746;2023-10-13T03:17:02;96317.47;;;12.84;100.00
10014;BME280;45684;48.358;10.746;2023-10-13T03:19:33;96328.97;;;12.81;100.00
10014;BME280;45684;48.358;10.746;2023-10-13T03:22:00;96326.59;;;12.80;100.00
10014;BME280;45684;48.358;10.746;2023-10-13T03:24:36;96325.63;;;12.75;100.00
10014;BME280;45684;48.358;10.746;2023-10-13T03:27:03;96317.03;;;12.73;100.00
10014;BME280;45684;48.358;10.746;2023-10-13T03:29:38;96314.97;;;12.70;100.00
10014;BME280;45684;48.358;10.746;2023-10-13T03:32:09;96310.53;;;12.66;100.00
10014;BME280;45684;48.358;10.746;2023-10-13T03:34:39;96315.78;;;12.62;100.00
10014;BME280;45684;48.358;10.746;2023-10-13T03:37:19;96305.91;;;12.58;100.00
10014;BME280;45684;48.358;10.746;2023-10-13T03:40:05;96314.72;;;12.55;100.00
10014;BME280;45684;48.358;10.746;2023-10-13T03:42:56;96307.69;;;12.54;100.00
10014;BME280;45684;48.358;10.746;2023-10-13T03:45:33;96301.47;;;12.53;100.00
10014;BME280;45684;48.358;10.746;2023-10-13T03:48:07;96303.53;;;12.56;100.00
10014;BME280;45684;48.358;10.746;2023-10-13T03:50:39;96299.06;;;12.60;100.00
10014;BME280;45684;48.358;10.746;2023-10-13T03:53:14;96284.38;;;12.61;100.00
10014;BME280;45684;48.358;10.746;2023-10-13T03:55:42;96293.28;;;12.62;100.00
10014;BME280;45684;48.358;10.746;2023-10-13T03:58:15;96292.84;;;12.60;100.00
10014;BME280;45684;48.358;10.746;2023-10-13T04:00:45;96291.22;;;12.59;100.00
10014;BME280;45684;48.358;10.746;2023-10-13T04:03:15;96289.34;;;12.59;100.00
10014;BME280;45684;48.358;10.746;2023-10-13T04:05:45;96296.66;;;12.59;100.00
10014;BME280;45684;48.358;10.746;2023-10-13T04:08:28;96286.63;;;12.59;100.00
10014;BME280;45684;48.358;10.746;2023-10-13T04:11:15;96281.84;;;12.56;100.00
10014;BME280;45684;48.358;10.746;2023-10-13T04:14:02;96288.84;;;12.57;100.00
10014;BME280;45684;48.358;10.746;2023-10-13T04:16:52;96291.56;;;12.57;100.00
10014;BME280;45684;48.358;10.746;2023-10-13T04:19:21;96286.63;;;12.59;100.00
10014;BME280;45684;48.358;10.746;2023-10-13T04:21:56;96290.13;;;12.60;100.00
10014;BME280;45684;48.358;10.746;2023-10-13T04:24:27;96289.34;;;12.59;100.00
10014;BME280;45684;48.358;10.746;2023-10-13T04:27:27;96291.56;;;12.57;100.00
10014;BME280;45684;48.358;10.746;2023-10-13T04:30:11;96295.06;;;12.58;100.00
10014;BME280;45684;48.358;10.746;2023-10-13T04:32:47;96293.16;;;12.58;100.00
10014;BME280;45684;48.358;10.746;2023-10-13T04:35:33;96292.34;;;12.58;100.00
10014;BME280;45684;48.358;10.746;2023-10-13T04:38:04;96287.59;;;12.55;100.00
10014;BME280;45684;48.358;10.746;2023-10-13T04:40:46;96278.34;;;12.56;100.00
10014;BME280;45684;48.358;10.746;2023-10-13T04:43:25;96273.69;;;12.56;100.00
10014;BME280;45684;48.358;10.746;2023-10-13T04:46:23;96272.41;;;12.54;100.00
10014;BME280;45684;48.358;10.746;2023-10-13T04:49:04;96265.75;;;12.51;100.00
10014;BME280;45684;48.358;10.746;2023-10-13T04:51:53;96275.00;;;12.50;100.00
10014;BME280;45684;48.358;10.746;2023-10-13T04:54:25;96276.59;;;12.51;100.00
10014;BME280;45684;48.358;10.746;2023-10-13T04:57:00;96279.91;;;12.57;100.00
10014;BME280;45684;48.358;10.746;2023-10-13T04:59:42;96279.13;;;12.56;100.00
10014;BME280;45684;48.358;10.746;2023-10-13T05:02:27;96273.88;;;12.51;100.00
10014;BME280;45684;48.358;10.746;2023-10-13T05:05:23;96275.66;;;12.47;100.00
10014;BME280;45684;48.358;10.746;2023-10-13T05:08:09;96284.44;;;12.44;100.00
10014;BME280;45684;48.358;10.746;2023-10-13T05:10:54;96270.75;;;12.40;100.00
10014;BME280;45684;48.358;10.746;2023-10-13T05:13:39;96271.53;;;12.41;100.00
10014;BME280;45684;48.358;10.746;2023-10-13T05:16:24;96269.91;;;12.40;100.00
10014;BME280;45684;48.358;10.746;2023-10-13T05:19:10;96264.69;;;12.35;100.00
10014;BME280;45684;48.358;10.746;2023-10-13T05:21:56;96273.94;;;12.34;100.00
10014;BME280;45684;48.358;10.746;2023-10-13T05:24:42;96283.19;;;12.33;100.00
10014;BME280;45684;48.358;10.746;2023-10-13T05:27:27;96266.94;;;12.33;100.00
10014;BME280;45684;48.358;10.746;2023-10-13T05:30:12;96271.56;;;12.32;100.00
10014;BME280;45684;48.358;10.746;2023-10-13T05:32:58;96280.81;;;12.31;100.00
10014;BME280;45684;48.358;10.746;2023-10-13T05:35:43;96283.03;;;12.29;100.00
10014;BME280;45684;48.358;10.746;2023-10-13T05:38:32;96281.78;;;12.27;100.00
10014;BME280;45684;48.358;10.746;2023-10-13T05:41:17;96278.94;;;12.23;100.00
10014;BME280;45684;48.358;10.746;2023-10-13T05:44:02;96271.44;;;12.20;100.00
10014;BME280;45684;48.358;10.746;2023-10-13T05:46:48;96275.28;;;12.19;100.00
10014;BME280;45684;48.358;10.746;2023-10-13T05:49:49;96280.34;;;12.20;100.00
10014;BME280;45684;48.358;10.746;2023-10-13T05:52:31;96287.69;;;12.20;100.00
10014;BME280;45684;48.358;10.746;2023-10-13T05:55:24;96281.47;;;12.19;100.00
10014;BME280;45684;48.358;10.746;2023-10-13T05:58:10;96278.78;;;12.19;100.00
10014;BME280;45684;48.358;10.746;2023-10-13T06:00:56;96285.78;;;12.20;100.00
10014;BME280;45684;48.358;10.746;2023-10-13T06:03:44;96292.78;;;12.21;100.00
10014;BME280;45684;48.358;10.746;2023-10-13T06:06:30;96287.84;;;12.23;100.00
10014;BME280;45684;48.358;10.746;2023-10-13T06:09:15;96288.81;;;12.28;100.00
10014;BME280;45684;48.358;10.746;2023-10-13T06:12:16;96284.63;;;12.30;100.00
10014;BME280;45684;48.358;10.746;2023-10-13T06:15:04;96292.94;;;12.34;100.00
10014;BME280;45684;48.358;10.746;2023-10-13T06:17:49;96294.81;;;12.42;100.00
10014;BME280;45684;48.358;10.746;2023-10-13T06:20:38;96298.59;;;12.49;100.00
10014;BME280;45684;48.358;10.746;2023-10-13T06:23:20;96296.97;;;12.57;100.00
10014;BME280;45684;48.358;10.746;2023-10-13T06:26:05;96294.88;;;12.63;100.00
10014;BME280;45684;48.358;10.746;2023-10-13T06:28:52;96300.59;;;12.70;100.00
10014;BME280;45684;48.358;10.746;2023-10-13T06:31:19;96300.09;;;12.76;100.00
10014;BME280;45684;48.358;10.746;2023-10-13T06:33:53;96298.47;;;12.84;100.00
10014;BME280;45684;48.358;10.746;2023-10-13T06:36:22;96302.56;;;12.90;100.00
10014;BME280;45684;48.358;10.746;2023-10-13T06:38:50;96300.94;;;12.98;100.00
10014;BME280;45684;48.358;10.746;2023-10-13T06:41:43;96299.63;;;13.04;100.00
10014;BME280;45684;48.358;10.746;2023-10-13T06:44:12;96306.13;;;13.12;100.00
10014;BME280;45684;48.358;10.746;2023-10-13T06:46:43;96302.88;;;13.18;100.00
10014;BME280;45684;48.358;10.746;2023-10-13T06:49:11;96298.56;;;13.26;100.00
10014;BME280;45684;48.358;10.746;2023-10-13T06:51:40;96299.66;;;13.34;100.00
10014;BME280;45684;48.358;10.746;2023-10-13T06:54:09;96299.56;;;13.42;100.00
10014;BME280;45684;48.358;10.746;2023-10-13T06:56:46;96288.31;;;13.52;100.00
10014;BME280;45684;48.358;10.746;2023-10-13T06:59:19;96293.34;;;13.63;100.00
10014;BME280;45684;48.358;10.746;2023-10-13T07:01:53;96294.16;;;13.75;100.00
10014;BME280;45684;48.358;10.746;2023-10-13T07:04:21;96295.16;;;13.92;100.00
10014;BME280;45684;48.358;10.746;2023-10-13T07:06:49;96291.81;;;14.07;100.00
10014;BME280;45684;48.358;10.746;2023-10-13T07:09:17;96294.00;;;14.26;100.00
10014;BME280;45684;48.358;10.746;2023-10-13T07:12:04;96294.09;;;14.50;100.00
10014;BME280;45684;48.358;10.746;2023-10-13T07:14:35;96291.84;;;14.77;100.00
10014;BME280;45684;48.358;10.746;2023-10-13T07:17:05;96297.31;;;15.01;100.00
10014;BME280;45684;48.358;10.746;2023-10-13T07:19:34;96299.88;;;15.22;100.00
10014;BME280;45684;48.358;10.746;2023-10-13T07:22:11;96300.97;;;15.46;100.00
10014;BME280;45684;48.358;10.746;2023-10-13T07:24:48;96308.22;;;15.66;100.00
10014;BME280;45684;48.358;10.746;2023-10-13T07:27:16;96305.31;;;15.87;98.18
10014;BME280;45684;48.358;10.746;2023-10-13T07:29:51;96300.44;;;16.08;93.88
10014;BME280;45684;48.358;10.746;2023-10-13T07:32:40;96309.66;;;16.32;90.72
10014;BME280;45684;48.358;10.746;2023-10-13T07:35:15;96310.56;;;16.52;87.77
10014;BME280;45684;48.358;10.746;2023-10-13T07:37:44;96306.63;;;16.65;88.54
10014;BME280;45684;48.358;10.746;2023-10-13T07:40:15;96306.47;;;16.74;86.38
10014;BME280;45684;48.358;10.746;2023-10-13T07:43:06;96305.31;;;16.91;85.74
10014;BME280;45684;48.358;10.746;2023-10-13T07:45:39;96304.88;;;17.04;82.63
10014;BME280;45684;48.358;10.746;2023-10-13T07:48:09;96304.84;;;17.20;78.16
10014;BME280;45684;48.358;10.746;2023-10-13T07:50:46;96311.44;;;17.35;77.62
10014;BME280;45684;48.358;10.746;2023-10-13T07:53:15;96309.44;;;17.51;76.46
10014;BME280;45684;48.358;10.746;2023-10-13T07:55:50;96312.56;;;17.69;73.13
10014;BME280;45684;48.358;10.746;2023-10-13T07:58:22;96314.06;;;17.82;70.43
10014;BME280;45684;48.358;10.746;2023-10-13T08:00:54;96314.63;;;17.92;70.61
10014;BME280;45684;48.358;10.746;2023-10-13T08:03:43;96313.59;;;18.00;70.83
10014;BME280;45684;48.358;10.746;2023-10-13T08:06:12;96313.84;;;18.10;72.06
10014;BME280;45684;48.358;10.746;2023-10-13T08:08:48;96315.59;;;18.22;73.50
10014;BME280;45684;48.358;10.746;2023-10-13T08:11:22;96310.34;;;18.33;72.14
10014;BME280;45684;48.358;10.746;2023-10-13T08:13:59;96315.31;;;18.47;73.00
10014;BME280;45684;48.358;10.746;2023-10-13T08:16:58;96308.44;;;18.56;70.23
10014;BME280;45684;48.358;10.746;2023-10-13T08:19:28;96311.78;;;18.69;68.67
10014;BME280;45684;48.358;10.746;2023-10-13T08:22:06;96305.66;;;18.76;68.47
10014;BME280;45684;48.358;10.746;2023-10-13T08:24:51;96302.69;;;18.84;68.04
10014;BME280;45684;48.358;10.746;2023-10-13T08:27:39;96298.94;;;18.96;67.80
10014;BME280;45684;48.358;10.746;2023-10-13T08:30:17;96304.66;;;19.10;66.91
10014;BME280;45684;48.358;10.746;2023-10-13T08:32:54;96301.34;;;19.24;64.71
10014;BME280;45684;48.358;10.746;2023-10-13T08:35:24;96303.13;;;19.40;64.24
10014;BME280;45684;48.358;10.746;2023-10-13T08:38:03;96304.47;;;19.53;63.65
10014;BME280;45684;48.358;10.746;2023-10-13T08:40:58;96297.75;;;19.73;59.75
10014;BME280;45684;48.358;10.746;2023-10-13T08:43:41;96299.56;;;19.92;58.62
10014;BME280;45684;48.358;10.746;2023-10-13T08:46:12;96295.06;;;20.10;59.24
10014;BME280;45684;48.358;10.746;2023-10-13T08:48:59;96296.06;;;20.32;57.73
10014;BME280;45684;48.358;10.746;2023-10-13T08:51:36;96295.13;;;20.51;54.93
10014;BME280;45684;48.358;10.746;2023-10-13T08:54:13;96292.50;;;20.66;55.32
10014;BME280;45684;48.358;10.746;2023-10-13T08:56:55;96289.47;;;20.78;56.24
10014;BME280;45684;48.358;10.746;2023-10-13T08:59:23;96296.66;;;20.89;53.54
10014;BME280;45684;48.358;10.746;2023-10-13T09:02:00;96299.94;;;21.06;51.91
10014;BME280;45684;48.358;10.746;2023-10-13T09:04:44;96287.88;;;21.25;50.54
10014;BME280;45684;48.358;10.746;2023-10-13T09:07:13;96284.88;;;21.44;50.92
10014;BME280;45684;48.358;10.746;2023-10-13T09:09:49;96288.50;;;21.59;49.92
10014;BME280;45684;48.358;10.746;2023-10-13T09:12:35;96286.19;;;21.68;49.24
10014;BME280;45684;48.358;10.746;2023-10-13T09:15:29;96281.56;;;21.83;48.17
10014;BME280;45684;48.358;10.746;2023-10-13T09:18:24;96278.09;;;21.97;44.40
10014;BME280;45684;48.358;10.746;2023-10-13T09:21:10;96277.34;;;22.10;44.09
10014;BME280;45684;48.358;10.746;2023-10-13T09:24:10;96272.31;;;22.30;43.22
10014;BME280;45684;48.358;10.746;2023-10-13T09:26:50;96274.69;;;22.46;42.59
10014;BME280;45684;48.358;10.746;2023-10-13T09:29:20;96271.16;;;22.56;43.08
10014;BME280;45684;48.358;10.746;2023-10-13T09:31:58;96268.03;;;22.65;43.34
10014;BME280;45684;48.358;10.746;2023-10-13T09:34:27;96272.38;;;22.70;43.19
10014;BME280;45684;48.358;10.746;2023-10-13T09:36:58;96271.59;;;22.83;42.80
10014;BME280;45684;48.358;10.746;2023-10-13T09:39:29;96271.63;;;22.98;43.03
10014;BME280;45684;48.358;10.746;2023-10-13T09:41:56;96268.06;;;23.11;42.48
10014;BME280;45684;48.358;10.746;2023-10-13T09:44:26;96265.28;;;23.26;41.96
10014;BME280;45684;48.358;10.746;2023-10-13T09:47:01;96270.78;;;23.40;42.12
10014;BME280;45684;48.358;10.746;2023-10-13T09:49:42;96263.28;;;23.44;41.14
10014;BME280;45684;48.358;10.746;2023-10-13T09:52:18;96258.13;;;23.57;41.27
10014;BME280;45684;48.358;10.746;2023-10-13T09:55:00;96264.44;;;23.68;40.82
10014;BME280;45684;48.358;10.746;2023-10-13T09:57:34;96247.06;;;23.75;39.64
10014;BME280;45684;48.358;10.746;2023-10-13T10:00:13;96255.31;;;23.82;40.22
10014;BME280;45684;48.358;10.746;2023-10-13T10:03:02;96252.53;;;23.85;38.50
10014;BME280;45684;48.358;10.746;2023-10-13T10:05:54;96250.13;;;23.98;39.15
10014;BME280;45684;48.358;10.746;2023-10-13T10:08:31;96242.63;;;24.02;41.29
10014;BME280;45684;48.358;10.746;2023-10-13T10:11:07;96245.31;;;24.09;39.87
10014;BME280;45684;48.358;10.746;2023-10-13T10:13:39;96244.13;;;24.14;39.93
10014;BME280;45684;48.358;10.746;2023-10-13T10:16:16;96243.69;;;24.23;39.80
10014;BME280;45684;48.358;10.746;2023-10-13T10:18:46;96240.47;;;24.31;39.17
10014;BME280;45684;48.358;10.746;2023-10-13T10:21:15;96238.44;;;24.42;39.88
10014;BME280;45684;48.358;10.746;2023-10-13T10:23:53;96234.81;;;24.53;37.18
10014;BME280;45684;48.358;10.746;2023-10-13T10:26:21;96219.81;;;24.54;37.23
10014;BME280;45684;48.358;10.746;2023-10-13T10:28:53;96225.25;;;24.64;38.43
10014;BME280;45684;48.358;10.746;2023-10-13T10:31:31;96217.28;;;24.77;39.21
10014;BME280;45684;48.358;10.746;2023-10-13T10:34:11;96219.47;;;24.97;38.51
10014;BME280;45684;48.358;10.746;2023-10-13T10:36:42;96211.88;;;25.08;36.86
10014;BME280;45684;48.358;10.746;2023-10-13T10:39:14;96208.59;;;25.20;37.50
10014;BME280;45684;48.358;10.746;2023-10-13T10:41:44;96199.41;;;25.30;35.26
10014;BME280;45684;48.358;10.746;2023-10-13T10:44:19;96197.81;;;25.33;35.40
10014;BME280;45684;48.358;10.746;2023-10-13T10:47:10;96194.59;;;25.34;32.99
10014;BME280;45684;48.358;10.746;2023-10-13T10:49:46;96191.38;;;25.39;34.64
10014;BME280;45684;48.358;10.746;2023-10-13T10:52:17;96187.69;;;25.50;33.69
10014;BME280;45684;48.358;10.746;2023-10-13T10:54:58;96177.66;;;25.63;34.43
10014;BME280;45684;48.358;10.746;2023-10-13T10:57:26;96180.38;;;25.66;34.32
10014;BME280;45684;48.358;10.746;2023-10-13T10:59:59;96174.72;;;25.77;33.92
10014;BME280;45684;48.358;10.746;2023-10-13T11:02:37;96172.25;;;25.86;34.00
10014;BME280;45684;48.358;10.746;2023-10-13T11:05:06;96170.16;;;25.94;33.47
10014;BME280;45684;48.358;10.746;2023-10-13T11:07:36;96168.81;;;26.06;30.67
10014;BME280;45684;48.358;10.746;2023-10-13T11:10:09;96159.34;;;26.03;30.90
10014;BME280;45684;48.358;10.746;2023-10-13T11:12:55;96162.53;;;26.02;29.58
10014;BME280;45684;48.358;10.746;2023-10-13T11:15:23;96155.88;;;25.95;30.28
10014;BME280;45684;48.358;10.746;2023-10-13T11:18:00;96151.09;;;26.00;31.30
10014;BME280;45684;48.358;10.746;2023-10-13T11:20:32;96149.88;;;26.01;30.24
10014;BME280;45684;48.358;10.746;2023-10-13T11:23:13;96151.22;;;26.16;30.87
10014;BME280;45684;48.358;10.746;2023-10-13T11:25:43;96141.50;;;26.31;32.00
10014;BME280;45684;48.358;10.746;2023-10-13T11:28:12;96142.53;;;26.44;30.99
10014;BME280;45684;48.358;10.746;2023-10-13T11:30:47;96130.88;;;26.53;31.51
10014;BME280;45684;48.358;10.746;2023-10-13T11:33:18;96131.44;;;26.41;30.64
10014;BME280;45684;48.358;10.746;2023-10-13T11:35:50;96130.66;;;26.44;30.73
10014;BME280;45684;48.358;10.746;2023-10-13T11:38:25;96126.22;;;26.47;29.15
10014;BME280;45684;48.358;10.746;2023-10-13T11:40:55;96128.94;;;26.50;30.50
10014;BME280;45684;48.358;10.746;2023-10-13T11:43:50;96121.84;;;26.49;29.25
10014;BME280;45684;48.358;10.746;2023-10-13T11:46:34;96118.06;;;26.36;29.75
10014;BME280;45684;48.358;10.746;2023-10-13T11:49:22;96118.13;;;26.32;30.62
10014;BME280;45684;48.358;10.746;2023-10-13T11:52:04;96115.25;;;26.39;31.22
10014;BME280;45684;48.358;10.746;2023-10-13T11:54:52;96117.31;;;26.59;30.68
10014;BME280;45684;48.358;10.746;2023-10-13T11:57:21;96098.00;;;26.75;31.72
10014;BME280;45684;48.358;10.746;2023-10-13T11:59:49;96097.66;;;26.93;30.83
10014;BME280;45684;48.358;10.746;2023-10-13T12:02:46;96092.84;;;26.97;30.83
10014;BME280;45684;48.358;10.746;2023-10-13T12:05:31;96095.38;;;27.11;29.59
10014;BME280;45684;48.358;10.746;2023-10-13T12:08:15;96085.75;;;27.16;29.50
10014;BME280;45684;48.358;10.746;2023-10-13T12:10:49;96088.38;;;27.23;31.17
10014;BME280;45684;48.358;10.746;2023-10-13T12:13:28;96086.03;;;27.41;nan
10014;BME280;45684;48.358;10.746;2023-10-13T12:15:57;96075.00;;;27.38;29.52
10014;BME280;45684;48.358;10.746;2023-10-13T12:18:24;96073.63;;;27.46;29.79
10014;BME280;45684;48.358;10.746;2023-10-13T12:20:54;96071.41;;;27.57;29.80
10014;BME280;45684;48.358;10.746;2023-10-13T12:23:23;96072.38;;;27.67;29.81
10014;BME280;45684;48.358;10.746;2023-10-13T12:25:58;96063.75;;;27.81;30.48
10014;BME280;45684;48.358;10.746;2023-10-13T12:28:28;96061.59;;;27.89;29.28
10014;BME280;45684;48.358;10.746;2023-10-13T12:31:03;96055.88;;;27.96;29.38
10014;BME280;45684;48.358;10.746;2023-10-13T12:33:37;96059.09;;;27.94;29.47
10014;BME280;45684;48.358;10.746;2023-10-13T12:36:07;96050.56;;;28.02;29.38
10014;BME280;45684;48.358;10.746;2023-10-13T12:38:38;96042.75;;;27.96;29.20
10014;BME280;45684;48.358;10.746;2023-10-13T12:41:20;96044.47;;;27.90;28.67
10014;BME280;45684;48.358;10.746;2023-10-13T12:44:07;96039.97;;;27.80;28.83
10014;BME280;45684;48.358;10.746;2023-10-13T12:46:52;96038.22;;;27.86;30.02
10014;BME280;45684;48.358;10.746;2023-10-13T12:49:38;96037.97;;;27.97;29.70
10014;BME280;45684;48.358;10.746;2023-10-13T12:52:16;96029.97;;;27.99;29.85
10014;BME280;45684;48.358;10.746;2023-10-13T12:54:46;96028.44;;;27.98;29.43
10014;BME280;45684;48.358;10.746;2023-10-13T12:57:26;96024.25;;;27.90;30.14
10014;BME280;45684;48.358;10.746;2023-10-13T12:59:55;96015.81;;;27.93;29.69
10014;BME280;45684;48.358;10.746;2023-10-13T13:02:24;96011.81;;;27.94;30.11
10014;BME280;45684;48.358;10.746;2023-10-13T13:04:54;96009.66;;;27.86;29.64
10014;BME280;45684;48.358;10.746;2023-10-13T13:07:24;96002.00;;;27.90;29.91
10014;BME280;45684;48.358;10.746;2023-10-13T13:09:56;96002.25;;;27.95;30.23
10014;BME280;45684;48.358;10.746;2023-10-13T13:12:26;95997.41;;;28.00;30.33
10014;BME280;45684;48.358;10.746;2023-10-13T13:14:56;95990.69;;;27.97;30.94
10014;BME280;45684;48.358;10.746;2023-10-13T13:17:23;95992.63;;;28.00;30.63
10014;BME280;45684;48.358;10.746;2023-10-13T13:19:51;95987.31;;;27.89;29.55
10014;BME280;45684;48.358;10.746;2023-10-13T13:22:20;95982.72;;;27.83;29.69
10014;BME280;45684;48.358;10.746;2023-10-13T13:24:48;95983.47;;;27.67;29.90
10014;BME280;45684;48.358;10.746;2023-10-13T13:27:16;95982.31;;;27.64;29.27
10014;BME280;45684;48.358;10.746;2023-10-13T13:29:51;95980.75;;;27.63;29.38